METAR AND TAF INFORMATION
METAR FOR ENVA
ADDS - METARS form results

(0552 UTC 28 October 2020)
Data provider http://aviationweather.gov/metar/data/
 
METAR text: ENVA 280550Z 07006KT CAVOK M01/M01 Q0990 NOSIG RMK WIND 670FT 14005KT
Conditions at: ENVA (TRONDHEIM/VAERNE, NO) observed 0550 UTC 28 October 2020
Temperature: -1.0°C (30°F)
Dewpoint: -1.0°C (30°F) [RH = 100%]
Pressure (altimeter): 29.23 inches Hg (990.0 mb)
Winds: from the ENE (70 degrees) at 7 MPH (6 knots; 3.1 m/s)
Visibility: 6 or more miles (10+ km)
Ceiling: ceiling and visibility are OK
Clouds: unknown
Weather: no significant weather observed at this time

METAR text: ENVA 280520Z 09006KT CAVOK M00/M00 Q0990 RMK WIND 670FT 14006KT
Conditions at: ENVA (TRONDHEIM/VAERNE, NO) observed 0520 UTC 28 October 2020
Temperature: 0.0°C (32°F)
Dewpoint: 0.0°C (32°F) [RH = 100%]
Pressure (altimeter): 29.23 inches Hg (990.0 mb)
Winds: from the E (90 degrees) at 7 MPH (6 knots; 3.1 m/s)
Visibility: 6 or more miles (10+ km)
Ceiling: ceiling and visibility are OK
Clouds: unknown
Weather: no significant weather observed at this time

Forecast for: ENVA (TRONDHEIM/VAERNE, NO)
Text: ENVA 2806/2906 09005KT CAVOK
Forecast period: 0600 UTC 28 October 2020 to 0600 UTC 29 October 2020
Forecast type: FROM: standard forecast or significant change
Winds: from the E (90 degrees) at 6 MPH (5 knots; 2.6 m/s)
Visibility: 6 or more miles (10+ km)
Ceiling: unknown
Clouds: missing
Weather: NSW  (no significant weather)
Text: TEMPO 2814/2818 RA
Forecast period: 1400 to 1800 UTC 28 October 2020
Forecast type: TEMPORARY: The following changes expected for less than half the time period
Visibility: missing
Ceiling: unknown
Clouds: missing
Weather: RA  (moderate rain)
Text: PROB40 2815/2903 23012KT
Forecast period: 1500 UTC 28 October 2020 to 0300 UTC 29 October 2020
Forecast type: PROBABLE: 40 percent likelihood of the following during this time
Winds: from the SW (230 degrees) at 14 MPH (12 knots; 6.2 m/s)
Visibility: missing
Ceiling: unknown
Clouds: missing
Weather: no significant weather forecast for this period

 AIRPORT MAP

 RUNWAY INFORMATION

 AIRPORT FREQUENCIES
Type APP Name APP Frequency 118.6 MHZ
Type ATIS Name ATIS Frequency 127.55 MHZ
Type GND Name Værnes gro Frequency 121.6 MHZ
Type TWR Name TWR Frequency 119.4 MHZ

 AIRPORT NEAR NAVIGATION AIDS
Type NDB Name Flornes Frequency 380 KHZ
Type NDB Name Grakallen Frequency 358 KHZ
Type VOR-DME Name Trondheim Frequency 112500 KHZ
Type TACAN Name Vaernes Frequency 109600 KHZ



2018 Air Astana Virtual Airline